Time;durP1;ratioP1;P1;durP2;ratioP2;P2;SDS_P1;SDS_P2;PMS_P1;PMS_P2;Temp;Humidity;BMP_temperature;BMP_pressure;BME280_temperature;BME280_humidity;BME280_pressure;Samples;Min_cycle;Max_cycle;Signal;HPM_P1;HPM_P2
2023/09/10 00:01:02;;;;;;;23.80;21.30;;;;;;;;;;10225101;28;20095;-68
2023/09/10 00:05:59;;;;;;;26.23;21.30;;;;;;;;;;10210888;28;20049;-69
2023/09/10 00:10:56;;;;;;;23.13;20.65;;;;;;;;;;10217408;28;20516;-67
2023/09/10 00:15:53;;;;;;;24.75;22.15;;;;;;;;;;10214313;28;20805;-68
2023/09/10 00:20:50;;;;;;;25.85;23.20;;;;;;;;;;10213504;28;20148;-68
2023/09/10 00:25:47;;;;;;;25.35;22.60;;;;;;;;;;10216726;28;20513;-68
2023/09/10 00:30:50;;;;;;;30.08;23.13;;;;;;;;;;10224681;28;20045;-68
2023/09/10 00:35:47;;;;;;;26.90;24.30;;;;;;;;;;10224238;28;20050;-68
2023/09/10 00:40:43;;;;;;;31.13;24.55;;;;;;;;;;10217155;28;20046;-68
2023/09/10 00:45:39;;;;;;;29.02;25.75;;;;;;;;;;10219928;28;20425;-68
2023/09/10 00:50:36;;;;;;;27.55;24.58;;;;;;;;;;10216170;28;20592;-68
2023/09/10 00:55:34;;;;;;;26.92;24.02;;;;;;;;;;10208696;28;20525;-68
2023/09/10 01:00:32;;;;;;;28.80;25.85;;;;;;;;;;10219015;28;20463;-68
2023/09/10 01:05:29;;;;;;;28.02;25.27;;;;;;;;;;10212215;28;20057;-68
2023/09/10 01:10:28;;;;;;;28.95;26.25;;;;;;;;;;10205941;28;20145;-68
2023/09/10 01:15:33;;;;;;;28.80;26.05;;;;;;;;;;10214104;28;20149;-68
2023/09/10 01:20:56;;;;;;;29.08;25.92;;;;;;;;;;10203185;28;20112;-68
2023/09/10 01:25:53;;;;;;;31.13;27.10;;;;;;;;;;10194533;28;20069;-67
2023/09/10 01:30:49;;;;;;;29.67;26.65;;;;;;;;;;10223203;28;20531;-67
2023/09/10 01:35:48;;;;;;;35.05;29.95;;;;;;;;;;10219528;28;20100;-66
2023/09/10 01:40:47;;;;;;;31.73;27.80;;;;;;;;;;10217604;28;20551;-66
2023/09/10 01:45:44;;;;;;;34.40;30.73;;;;;;;;;;10221233;28;20053;-67
2023/09/10 01:50:41;;;;;;;36.75;33.00;;;;;;;;;;10223082;28;20077;-68
2023/09/10 01:55:37;;;;;;;41.80;37.25;;;;;;;;;;10217803;28;20073;-68
2023/09/10 02:00:34;;;;;;;34.30;30.60;;;;;;;;;;10211087;28;20136;-68
2023/09/10 02:05:30;;;;;;;40.67;34.72;;;;;;;;;;10212516;28;21257;-67
2023/09/10 02:10:27;;;;;;;39.60;34.85;;;;;;;;;;10222920;28;20639;-67
2023/09/10 02:15:23;;;;;;;37.90;33.95;;;;;;;;;;10219414;28;20072;-68
2023/09/10 02:20:20;;;;;;;39.45;35.10;;;;;;;;;;10215517;28;20061;-68
2023/09/10 02:25:16;;;;;;;38.42;34.33;;;;;;;;;;10211381;28;20077;-67
2023/09/10 02:30:13;;;;;;;37.15;33.22;;;;;;;;;;10213300;28;20058;-67
2023/09/10 02:35:09;;;;;;;41.13;36.88;;;;;;;;;;10223391;28;20097;-68
2023/09/10 02:40:07;;;;;;;43.85;39.10;;;;;;;;;;10216680;28;20131;-67
2023/09/10 02:45:04;;;;;;;44.47;40.03;;;;;;;;;;10218361;28;20127;-67
2023/09/10 02:50:00;;;;;;;51.85;46.20;;;;;;;;;;10221881;28;20054;-67
2023/09/10 02:54:57;;;;;;;45.83;39.80;;;;;;;;;;10208991;28;20061;-67
2023/09/10 02:59:53;;;;;;;47.05;39.88;;;;;;;;;;10215298;28;20045;-67
2023/09/10 03:04:49;;;;;;;49.45;43.05;;;;;;;;;;10218631;28;20041;-67
2023/09/10 03:09:46;;;;;;;52.65;46.85;;;;;;;;;;10219881;28;20669;-68
2023/09/10 03:14:42;;;;;;;55.83;45.97;;;;;;;;;;10215087;28;20085;-68
2023/09/10 03:19:39;;;;;;;62.25;49.70;;;;;;;;;;10222739;28;20425;-68
2023/09/10 03:24:35;;;;;;;62.47;49.78;;;;;;;;;;10214242;28;20045;-68
2023/09/10 03:29:33;;;;;;;63.30;56.42;;;;;;;;;;10225819;28;20084;-69
2023/09/10 03:34:30;;;;;;;75.78;62.10;;;;;;;;;;10208322;28;20080;-69
2023/09/10 03:39:27;;;;;;;73.25;60.45;;;;;;;;;;10210412;28;20049;-68
2023/09/10 03:44:23;;;;;;;63.92;56.83;;;;;;;;;;10219626;28;20057;-68
2023/09/10 03:49:20;;;;;;;83.65;69.25;;;;;;;;;;10217326;28;20058;-69
2023/09/10 03:54:17;;;;;;;95.60;77.97;;;;;;;;;;10222753;28;20517;-68
2023/09/10 03:59:13;;;;;;;102.70;77.88;;;;;;;;;;10203633;28;20053;-68
2023/09/10 04:04:09;;;;;;;98.28;73.15;;;;;;;;;;10213483;28;20145;-68
2023/09/10 04:09:07;;;;;;;103.50;79.07;;;;;;;;;;10216422;28;20159;-68
2023/09/10 04:14:03;;;;;;;109.28;85.28;;;;;;;;;;10210974;28;20492;-68
2023/09/10 04:18:59;;;;;;;115.00;84.95;;;;;;;;;;10212339;28;20067;-67
2023/09/10 04:23:56;;;;;;;120.05;88.20;;;;;;;;;;10203429;28;20049;-67
2023/09/10 04:28:52;;;;;;;121.03;88.10;;;;;;;;;;10211346;28;20096;-68
2023/09/10 04:33:49;;;;;;;125.45;93.47;;;;;;;;;;10215860;28;20505;-67
2023/09/10 04:38:45;;;;;;;122.65;90.90;;;;;;;;;;10216965;28;20079;-68
2023/09/10 04:43:41;;;;;;;112.38;84.80;;;;;;;;;;10228698;28;20120;-67
2023/09/10 04:48:38;;;;;;;114.00;86.03;;;;;;;;;;10219377;28;20045;-68
2023/09/10 04:53:35;;;;;;;113.10;84.40;;;;;;;;;;10222218;28;20075;-67
2023/09/10 04:58:32;;;;;;;100.30;78.30;;;;;;;;;;10221042;28;20493;-67
2023/09/10 05:03:28;;;;;;;93.82;74.68;;;;;;;;;;10223374;28;20116;-66
2023/09/10 05:08:25;;;;;;;89.47;74.00;;;;;;;;;;10225942;28;20073;-67
2023/09/10 05:13:21;;;;;;;98.50;77.72;;;;;;;;;;10213589;28;20097;-67
2023/09/10 05:18:17;;;;;;;81.90;68.97;;;;;;;;;;10212674;28;20091;-68
2023/09/10 05:23:14;;;;;;;89.80;73.22;;;;;;;;;;10213571;28;20104;-67
2023/09/10 05:28:10;;;;;;;87.30;71.25;;;;;;;;;;10207938;28;20448;-67
2023/09/10 05:33:07;;;;;;;86.28;71.20;;;;;;;;;;10228895;28;20053;-67
2023/09/10 05:38:03;;;;;;;88.32;72.10;;;;;;;;;;10217667;28;20046;-68
2023/09/10 05:43:00;;;;;;;87.85;71.43;;;;;;;;;;10217112;28;20048;-67
2023/09/10 05:47:56;;;;;;;93.78;70.97;;;;;;;;;;10209289;28;20447;-67
2023/09/10 05:52:56;;;;;;;90.50;70.72;;;;;;;;;;10219761;28;20115;-67
2023/09/10 05:57:52;;;;;;;93.82;70.00;;;;;;;;;;10208018;28;20038;-67
2023/09/10 06:02:49;;;;;;;102.03;75.00;;;;;;;;;;10213044;28;20107;-67
2023/09/10 06:07:45;;;;;;;109.63;71.50;;;;;;;;;;10219122;28;20092;-67
2023/09/10 06:12:43;;;;;;;106.75;69.80;;;;;;;;;;10215228;28;20092;-67
2023/09/10 06:17:39;;;;;;;97.80;61.40;;;;;;;;;;10210346;28;20476;-68
2023/09/10 06:22:35;;;;;;;93.53;57.20;;;;;;;;;;10202543;28;20050;-68
2023/09/10 06:27:32;;;;;;;95.43;58.70;;;;;;;;;;10223108;28;20053;-68
2023/09/10 06:32:28;;;;;;;95.57;58.72;;;;;;;;;;10222315;28;20081;-68
2023/09/10 06:37:25;;;;;;;93.13;56.28;;;;;;;;;;10220334;28;20091;-68
2023/09/10 06:42:21;;;;;;;88.60;54.35;;;;;;;;;;10224930;28;20525;-68
2023/09/10 06:47:17;;;;;;;102.30;58.42;;;;;;;;;;10221061;28;20080;-67
2023/09/10 06:52:14;;;;;;;91.15;55.90;;;;;;;;;;10222940;28;20045;-68
2023/09/10 06:57:10;;;;;;;95.20;57.58;;;;;;;;;;10215563;28;20085;-67
2023/09/10 07:02:07;;;;;;;97.35;55.40;;;;;;;;;;10222760;28;20081;-67
2023/09/10 07:07:04;;;;;;;90.03;54.28;;;;;;;;;;10215468;28;20049;-67
2023/09/10 07:12:00;;;;;;;101.85;54.92;;;;;;;;;;10215705;28;20128;-67
2023/09/10 07:16:56;;;;;;;86.20;51.28;;;;;;;;;;10218902;28;20052;-67
2023/09/10 07:21:52;;;;;;;86.75;49.63;;;;;;;;;;10211812;28;20055;-67
2023/09/10 07:26:49;;;;;;;80.45;51.72;;;;;;;;;;10210696;28;20544;-67
2023/09/10 07:31:45;;;;;;;105.93;55.92;;;;;;;;;;10220362;28;20640;-67
2023/09/10 07:36:44;;;;;;;79.00;49.60;;;;;;;;;;10225059;28;21227;-73
2023/09/10 07:41:40;;;;;;;88.50;50.30;;;;;;;;;;10199795;28;20061;-70
2023/09/10 07:46:37;;;;;;;83.18;51.28;;;;;;;;;;10205715;28;20053;-68
2023/09/10 07:51:33;;;;;;;70.97;48.53;;;;;;;;;;10198999;28;20056;-66
2023/09/10 07:56:29;;;;;;;83.55;48.53;;;;;;;;;;10211816;28;20053;-66
2023/09/10 08:01:26;;;;;;;71.60;47.70;;;;;;;;;;10212158;28;20088;-65
2023/09/10 08:06:22;;;;;;;76.05;48.70;;;;;;;;;;10215071;28;20065;-66
2023/09/10 08:11:18;;;;;;;71.72;46.55;;;;;;;;;;10223585;28;20076;-66
2023/09/10 08:16:16;;;;;;;73.10;46.70;;;;;;;;;;10209735;28;20054;-66
2023/09/10 08:21:13;;;;;;;81.22;51.20;;;;;;;;;;10200131;28;20049;-72
2023/09/10 08:26:09;;;;;;;69.05;46.35;;;;;;;;;;10211208;28;20107;-71
2023/09/10 08:31:06;;;;;;;82.88;50.30;;;;;;;;;;10218282;28;20613;-71
2023/09/10 08:36:03;;;;;;;77.63;48.30;;;;;;;;;;10220983;28;20049;-71
2023/09/10 08:40:59;;;;;;;76.88;49.78;;;;;;;;;;10215471;28;20479;-71
2023/09/10 08:45:55;;;;;;;78.57;51.47;;;;;;;;;;10206075;28;20053;-69
2023/09/10 08:56:04;;;;;;;80.82;50.55;;;;;;;;;;8831590;22;20068;-69
2023/09/10 09:01:00;;;;;;;83.63;50.80;;;;;;;;;;10250474;28;20049;-69
2023/09/10 09:05:58;;;;;;;71.25;48.17;;;;;;;;;;10257544;28;20049;-69
2023/09/10 09:10:54;;;;;;;77.35;45.53;;;;;;;;;;10239257;28;20504;-70
2023/09/10 09:15:51;;;;;;;67.53;45.08;;;;;;;;;;10249796;28;20045;-69
2023/09/10 09:20:50;;;;;;;59.65;40.15;;;;;;;;;;10265126;28;20095;-69
2023/09/10 09:25:47;;;;;;;74.22;43.72;;;;;;;;;;10251382;28;20081;-70
2023/09/10 09:30:43;;;;;;;63.95;40.92;;;;;;;;;;10255176;28;20056;-72
2023/09/10 09:35:40;;;;;;;59.28;39.65;;;;;;;;;;10257879;28;20146;-72
2023/09/10 09:40:36;;;;;;;62.10;38.95;;;;;;;;;;10260953;28;20051;-71
2023/09/10 09:45:33;;;;;;;63.72;38.20;;;;;;;;;;10251168;28;20061;-71
2023/09/10 09:50:30;;;;;;;60.50;41.22;;;;;;;;;;10247076;28;20538;-71
2023/09/10 09:55:26;;;;;;;56.00;39.30;;;;;;;;;;10250308;28;20125;-71
2023/09/10 10:00:23;;;;;;;56.03;38.55;;;;;;;;;;10249722;28;20112;-71
2023/09/10 10:05:19;;;;;;;60.97;41.30;;;;;;;;;;10233104;28;20080;-71
2023/09/10 10:10:18;;;;;;;50.97;36.80;;;;;;;;;;10251225;28;20097;-71
2023/09/10 10:15:16;;;;;;;58.90;41.00;;;;;;;;;;10341272;22;20060;-71
2023/09/10 10:20:13;;;;;;;56.63;39.03;;;;;;;;;;10247616;28;20640;-71
2023/09/10 10:25:10;;;;;;;56.05;37.78;;;;;;;;;;10250589;28;20107;-71
2023/09/10 10:30:07;;;;;;;55.08;37.97;;;;;;;;;;10258069;28;20689;-70
2023/09/10 10:35:05;;;;;;;47.38;35.42;;;;;;;;;;10247475;28;20045;-72
2023/09/10 10:40:10;;;;;;;47.80;35.72;;;;;;;;;;10237187;28;20583;-71
2023/09/10 10:45:09;;;;;;;45.08;30.55;;;;;;;;;;10251987;28;20053;-71
2023/09/10 10:50:08;;;;;;;51.22;36.83;;;;;;;;;;10257328;28;20065;-71
2023/09/10 10:55:05;;;;;;;49.33;34.13;;;;;;;;;;10236486;28;20053;-71
2023/09/10 11:00:03;;;;;;;48.53;34.42;;;;;;;;;;10240365;28;20101;-72
2023/09/10 11:05:04;;;;;;;43.70;32.20;;;;;;;;;;10235108;28;20068;-71
2023/09/10 11:10:19;;;;;;;43.83;32.93;;;;;;;;;;10253570;28;20049;-71
2023/09/10 11:15:15;;;;;;;41.20;29.83;;;;;;;;;;10252921;28;20500;-72
2023/09/10 11:20:32;;;;;;;43.20;31.92;;;;;;;;;;10260677;28;20829;-72
2023/09/10 11:25:31;;;;;;;34.30;29.20;;;;;;;;;;10240719;22;20524;-72
2023/09/10 11:30:28;;;;;;;41.72;31.38;;;;;;;;;;10238887;28;20367;-72
2023/09/10 11:35:24;;;;;;;37.05;29.27;;;;;;;;;;10250440;28;20104;-72
2023/09/10 11:40:21;;;;;;;39.95;30.27;;;;;;;;;;10253834;28;20064;-72
2023/09/10 11:45:19;;;;;;;39.42;32.10;;;;;;;;;;10258195;28;20055;-72
2023/09/10 11:50:23;;;;;;;37.33;30.40;;;;;;;;;;10261612;28;20099;-71
2023/09/10 11:55:20;;;;;;;33.47;27.67;;;;;;;;;;10262546;28;20522;-71
2023/09/10 12:00:18;;;;;;;28.70;24.42;;;;;;;;;;10264566;28;20057;-72
2023/09/10 12:05:15;;;;;;;28.83;24.73;;;;;;;;;;10257466;28;20057;-71
2023/09/10 12:10:14;;;;;;;31.90;24.35;;;;;;;;;;10258174;28;20067;-71
2023/09/10 12:15:11;;;;;;;28.88;23.05;;;;;;;;;;10257837;28;20168;-72
2023/09/10 12:20:08;;;;;;;33.88;26.27;;;;;;;;;;10253738;28;20053;-72
2023/09/10 12:25:05;;;;;;;26.35;21.38;;;;;;;;;;10256691;28;20057;-72
2023/09/10 12:30:01;;;;;;;26.52;21.95;;;;;;;;;;10271014;28;20127;-72
2023/09/10 12:34:57;;;;;;;32.25;26.35;;;;;;;;;;10269227;23;20109;-72
2023/09/10 12:39:54;;;;;;;28.55;24.02;;;;;;;;;;10242541;28;20049;-72
2023/09/10 12:44:51;;;;;;;25.90;22.15;;;;;;;;;;10254125;28;20064;-72
2023/09/10 12:49:47;;;;;;;31.92;23.75;;;;;;;;;;10251614;28;20708;-72
2023/09/10 13:00:23;;;;;;;;;;;;;;;;;;;;;
2023/09/10 13:05:39;;;;;;;30.70;24.77;;;;;;;;;;10192947;28;19921;-72
2023/09/10 13:10:38;;;;;;;26.02;22.20;;;;;;;;;;10225598;28;20561;-72
2023/09/10 13:26:45;;;;;;;24.05;21.45;;;;;;;;;;7577883;26;20053;-71
2023/09/10 13:31:41;;;;;;;23.95;21.38;;;;;;;;;;10258697;28;20049;-72
2023/09/10 13:36:39;;;;;;;21.73;19.13;;;;;;;;;;10299325;28;20068;-71
2023/09/10 13:41:35;;;;;;;21.02;18.83;;;;;;;;;;10292230;28;20041;-71
2023/09/10 13:46:32;;;;;;;22.42;19.98;;;;;;;;;;10299358;28;20107;-72
2023/09/10 13:51:28;;;;;;;23.77;20.58;;;;;;;;;;10304517;28;20045;-71
2023/09/10 13:56:26;;;;;;;23.50;21.00;;;;;;;;;;10301546;28;20052;-71
2023/09/10 14:01:23;;;;;;;23.88;21.17;;;;;;;;;;10293023;28;20052;-71
2023/09/10 14:06:19;;;;;;;23.98;21.48;;;;;;;;;;10292710;28;20128;-71
2023/09/10 14:11:16;;;;;;;26.15;22.05;;;;;;;;;;10284384;28;20687;-71
2023/09/10 14:16:12;;;;;;;24.70;22.17;;;;;;;;;;10289969;28;20063;-71
2023/09/10 14:21:09;;;;;;;24.10;21.55;;;;;;;;;;10292941;28;20500;-71
2023/09/10 14:26:07;;;;;;;21.85;19.55;;;;;;;;;;10296879;28;20084;-71
2023/09/10 14:31:03;;;;;;;23.67;20.30;;;;;;;;;;10294473;28;20053;-71
2023/09/10 14:36:00;;;;;;;25.35;21.38;;;;;;;;;;10297725;28;20049;-71
2023/09/10 14:40:56;;;;;;;23.58;21.08;;;;;;;;;;10300794;28;20049;-71
2023/09/10 14:46:13;;;;;;;26.98;21.67;;;;;;;;;;10341505;23;20060;-72
2023/09/10 14:51:10;;;;;;;21.95;19.05;;;;;;;;;;10266061;28;20076;-71
2023/09/10 14:56:07;;;;;;;22.83;19.17;;;;;;;;;;10248121;28;20412;-71
2023/09/10 15:01:03;;;;;;;25.95;20.48;;;;;;;;;;10239821;28;20068;-71
2023/09/10 15:06:02;;;;;;;21.77;19.30;;;;;;;;;;10250475;28;20075;-71
2023/09/10 15:10:58;;;;;;;31.60;24.52;;;;;;;;;;10247505;28;20382;-71
2023/09/10 15:15:55;;;;;;;29.08;24.10;;;;;;;;;;10241769;28;20164;-72
2023/09/10 15:20:51;;;;;;;27.30;23.83;;;;;;;;;;10257490;28;20417;-72
2023/09/10 15:36:32;;;;;;;26.10;22.43;;;;;;;;;;9589688;26;20128;-72
2023/09/10 15:41:29;;;;;;;28.05;24.55;;;;;;;;;;10261577;28;20060;-73
2023/09/10 15:46:26;;;;;;;30.10;24.10;;;;;;;;;;10223123;28;20084;-72
2023/09/10 15:56:20;;;;;;;28.27;25.20;;;;;;;;;;10164810;28;20100;-74
2023/09/10 16:01:16;;;;;;;31.88;25.77;;;;;;;;;;10204925;28;20175;-73
2023/09/10 16:06:13;;;;;;;31.95;24.98;;;;;;;;;;10208236;28;20046;-73
2023/09/10 16:11:12;;;;;;;26.02;23.23;;;;;;;;;;10184453;28;20555;-73
2023/09/10 16:16:10;;;;;;;26.10;22.17;;;;;;;;;;10189409;28;20075;-76
2023/09/10 16:21:08;;;;;;;26.80;21.65;;;;;;;;;;10219266;28;20133;-78
2023/09/10 16:26:06;;;;;;;27.45;24.33;;;;;;;;;;10222395;28;20483;-79
2023/09/10 16:31:09;;;;;;;23.98;20.08;;;;;;;;;;10218910;28;20124;-79
2023/09/10 16:36:07;;;;;;;21.80;19.52;;;;;;;;;;10187443;28;20269;-79
2023/09/10 16:41:03;;;;;;;20.73;18.55;;;;;;;;;;10196519;28;20054;-79
2023/09/10 16:46:00;;;;;;;25.27;22.65;;;;;;;;;;10213276;28;20057;-78
2023/09/10 16:50:57;;;;;;;22.83;20.42;;;;;;;;;;10227534;28;20045;-78
2023/09/10 16:55:53;;;;;;;37.83;33.50;;;;;;;;;;10232479;28;20053;-80
2023/09/10 17:00:50;;;;;;;26.13;23.13;;;;;;;;;;10225140;28;20136;-78
2023/09/10 17:05:46;;;;;;;26.95;22.63;;;;;;;;;;10211160;28;20144;-78
2023/09/10 17:10:43;;;;;;;24.55;20.63;;;;;;;;;;10230336;28;20116;-77
2023/09/10 17:15:40;;;;;;;21.50;19.25;;;;;;;;;;10228751;28;20115;-79
2023/09/10 17:20:37;;;;;;;20.42;18.30;;;;;;;;;;10197628;28;20703;-78
2023/09/10 17:25:36;;;;;;;23.40;20.65;;;;;;;;;;10211954;28;20161;-79
2023/09/10 17:30:34;;;;;;;22.38;19.92;;;;;;;;;;10193677;28;20448;-78
2023/09/10 17:35:32;;;;;;;22.83;18.75;;;;;;;;;;10209774;28;20498;-79
2023/09/10 17:45:46;;;;;;;21.55;18.58;;;;;;;;;;9775888;26;20486;-70
2023/09/10 17:50:43;;;;;;;21.38;19.23;;;;;;;;;;10181132;28;20498;-70
2023/09/10 17:55:39;;;;;;;24.92;19.95;;;;;;;;;;10180302;28;20061;-71
2023/09/10 18:00:36;;;;;;;23.08;20.58;;;;;;;;;;10185045;28;20721;-71
2023/09/10 18:05:32;;;;;;;21.75;19.55;;;;;;;;;;10181884;28;20057;-70
2023/09/10 18:10:28;;;;;;;22.17;19.77;;;;;;;;;;10185290;28;20053;-70
2023/09/10 18:15:25;;;;;;;22.40;20.13;;;;;;;;;;10181531;28;20046;-71
2023/09/10 18:20:21;;;;;;;22.27;19.98;;;;;;;;;;10185802;28;20077;-70
2023/09/10 18:25:19;;;;;;;25.67;22.42;;;;;;;;;;10168781;28;20051;-70
2023/09/10 18:30:16;;;;;;;24.55;21.95;;;;;;;;;;10183536;28;20077;-70
2023/09/10 18:35:12;;;;;;;25.48;22.80;;;;;;;;;;10189777;28;20049;-71
2023/09/10 18:40:10;;;;;;;23.83;21.33;;;;;;;;;;10183542;28;20041;-71
2023/09/10 18:45:06;;;;;;;25.75;21.75;;;;;;;;;;10339157;22;20088;-71
2023/09/10 18:50:03;;;;;;;26.65;23.20;;;;;;;;;;10261541;28;20107;-70
2023/09/10 19:00:11;;;;;;;24.38;21.88;;;;;;;;;;10310441;22;20052;-70
2023/09/10 19:05:07;;;;;;;24.77;22.33;;;;;;;;;;10461228;22;20053;-71
2023/09/10 19:10:03;;;;;;;22.63;20.38;;;;;;;;;;10244866;28;20042;-72
2023/09/10 19:20:58;;;;;;;23.85;21.33;;;;;;;;;;10246338;28;20124;-70
2023/09/10 19:25:55;;;;;;;24.95;22.45;;;;;;;;;;10260920;28;20033;-71
2023/09/10 19:30:52;;;;;;;23.55;21.23;;;;;;;;;;10258606;28;20064;-70
2023/09/10 19:35:49;;;;;;;23.27;20.98;;;;;;;;;;10395605;22;20115;-70
2023/09/10 19:40:49;;;;;;;24.75;21.85;;;;;;;;;;10296311;28;20063;-73
2023/09/10 19:45:45;;;;;;;24.92;22.27;;;;;;;;;;10317013;22;20056;-72
2023/09/10 19:50:42;;;;;;;24.73;22.23;;;;;;;;;;10244516;28;20072;-73
2023/09/10 19:55:38;;;;;;;26.25;23.45;;;;;;;;;;10240293;28;20053;-70
2023/09/10 20:00:34;;;;;;;27.33;23.52;;;;;;;;;;10249762;28;20128;-69
2023/09/10 20:05:31;;;;;;;25.33;22.52;;;;;;;;;;10255296;28;20129;-69
2023/09/10 20:10:28;;;;;;;23.13;20.77;;;;;;;;;;10254378;28;20545;-71
2023/09/10 20:15:24;;;;;;;25.50;22.65;;;;;;;;;;10266054;28;20052;-70
2023/09/10 20:20:21;;;;;;;25.38;22.65;;;;;;;;;;10267117;28;20155;-71
2023/09/10 20:25:18;;;;;;;26.30;22.90;;;;;;;;;;10250985;28;20049;-67
2023/09/10 20:30:15;;;;;;;26.48;21.75;;;;;;;;;;10263484;28;20049;-70
2023/09/10 20:35:11;;;;;;;26.23;23.67;;;;;;;;;;10260533;28;20049;-70
2023/09/10 20:40:08;;;;;;;30.95;23.08;;;;;;;;;;10268607;28;20072;-69
2023/09/10 20:45:05;;;;;;;24.70;22.08;;;;;;;;;;10262570;28;20084;-69
2023/09/10 20:50:03;;;;;;;23.88;21.48;;;;;;;;;;10262542;28;20073;-69
2023/09/10 20:54:59;;;;;;;26.85;22.38;;;;;;;;;;10267276;28;20416;-69
2023/09/10 20:59:55;;;;;;;26.65;22.85;;;;;;;;;;10270679;28;20045;-69
2023/09/10 21:04:52;;;;;;;26.88;23.73;;;;;;;;;;10253339;28;20056;-69
2023/09/10 21:09:48;;;;;;;26.10;23.33;;;;;;;;;;10259868;28;20061;-69
2023/09/10 21:14:45;;;;;;;27.98;25.10;;;;;;;;;;10273699;28;20727;-69
2023/09/10 21:19:42;;;;;;;27.73;24.77;;;;;;;;;;10251286;28;20051;-70
2023/09/10 21:24:38;;;;;;;30.27;26.98;;;;;;;;;;10262215;28;20433;-69
2023/09/10 21:29:37;;;;;;;29.02;25.80;;;;;;;;;;10258430;28;20459;-70
2023/09/10 21:34:34;;;;;;;30.55;27.23;;;;;;;;;;10265441;28;20394;-70
2023/09/10 21:39:30;;;;;;;33.38;26.13;;;;;;;;;;10269999;28;20099;-70
2023/09/10 21:44:26;;;;;;;28.02;24.90;;;;;;;;;;10268419;28;20041;-70
2023/09/10 21:49:24;;;;;;;32.22;26.60;;;;;;;;;;10251546;28;20435;-70
2023/09/10 21:54:23;;;;;;;31.70;27.13;;;;;;;;;;10259389;28;20052;-69
2023/09/10 21:59:20;;;;;;;35.97;30.20;;;;;;;;;;10265930;28;20076;-69
2023/09/10 22:04:17;;;;;;;36.10;28.63;;;;;;;;;;10263998;28;20088;-69
2023/09/10 22:09:13;;;;;;;33.67;28.10;;;;;;;;;;10265921;28;20052;-68
2023/09/10 22:14:11;;;;;;;33.38;29.23;;;;;;;;;;10244782;28;20489;-68
2023/09/10 22:19:08;;;;;;;35.42;29.95;;;;;;;;;;10261842;28;20140;-70
2023/09/10 22:24:05;;;;;;;36.40;29.92;;;;;;;;;;10260905;28;20057;-70
2023/09/10 22:29:02;;;;;;;30.83;27.63;;;;;;;;;;10262973;28;20056;-69
2023/09/10 22:33:59;;;;;;;36.45;29.83;;;;;;;;;;10268503;28;20048;-69
2023/09/10 22:38:55;;;;;;;33.15;28.52;;;;;;;;;;10261677;28;20440;-70
2023/09/10 22:43:51;;;;;;;34.08;28.83;;;;;;;;;;10263424;28;20053;-70
2023/09/10 22:48:48;;;;;;;35.17;29.33;;;;;;;;;;10247801;28;20072;-69
2023/09/10 22:53:49;;;;;;;32.67;29.15;;;;;;;;;;10257439;28;20041;-69
2023/09/10 22:58:46;;;;;;;38.53;32.23;;;;;;;;;;10265408;28;20542;-70
2023/09/10 23:03:42;;;;;;;39.83;30.58;;;;;;;;;;10261311;28;20083;-69
2023/09/10 23:08:39;;;;;;;34.72;28.23;;;;;;;;;;10261108;28;20046;-70
2023/09/10 23:13:36;;;;;;;34.50;30.75;;;;;;;;;;10256154;28;20120;-70
2023/09/10 23:18:32;;;;;;;36.28;32.20;;;;;;;;;;10259909;28;20037;-69
2023/09/10 23:23:29;;;;;;;35.85;31.80;;;;;;;;;;10264413;28;20056;-69
2023/09/10 23:28:25;;;;;;;34.33;29.52;;;;;;;;;;10270389;28;20113;-69
2023/09/10 23:33:22;;;;;;;40.40;29.92;;;;;;;;;;10259602;28;20049;-69
2023/09/10 23:38:19;;;;;;;35.22;29.95;;;;;;;;;;10255860;28;20050;-69
2023/09/10 23:43:15;;;;;;;36.15;30.38;;;;;;;;;;10257399;28;20461;-69
2023/09/10 23:48:11;;;;;;;36.13;32.22;;;;;;;;;;10256603;28;20049;-70
2023/09/10 23:53:08;;;;;;;38.03;32.92;;;;;;;;;;10260168;28;20509;-68
2023/09/10 23:58:05;;;;;;;37.60;32.55;;;;;;;;;;10262706;28;20069;-68
